Aérodrome :
LOGIN :

S'inscrire | Disclaimer

   EN    FR    IT 

 










Légende :    VFR   VFR Marginal   IFR   IFR Intensif   IFR Très Intensif
Visi : 
Plafond : 
>= 8 km
>= 3000ft
5 à 8 km
1000 à 3000 ft
1500m à 5 km
500 à 1000 ft
800 à 1500m
200 à 500 ft
< 800m
< 200 ft
Symboles :   Orages  Brouillard  Fortes neiges  Fortes précipitations  Vent > 20 kt
SIGMETs :   Divers  Orages  Givrage  Turbulence  Onde Orograph.  Cendres Volcan.







- Altitude de l'aérodrome : 170 ft
- Code IATA : BGO


ENBR - Bergen , Flesland

DERNIER METAR :
  • 232220Z 16004KT 9999 FEW025 SCT045 02/01 Q1022 RMK WIND 1200FT 27016KT

METARs EXPIRÉS :
  • 232150Z 15004KT 9999 FEW020 SCT045 03/01 Q1022 RMK WIND 1200FT 27016KT
  • 232120Z 22006KT 9999 FEW015 SCT025CB 04/02 Q1021 RMK WIND 1200FT 26013KT
  • 232050Z 27005KT 160V330 9999 FEW015 SCT025CB 04/01 Q1021 RMK WIND 1200FT 27014KT
  • 232020Z 30009KT 260V330 9999 VCSH FEW015 SCT025CB 04/01 Q1021 RMK WIND 1200FT 29020KT
  • 231950Z 26010G20KT 9999 -SHRA FEW015 SCT025CB BKN055 04/01 Q1021 TEMPO SHRA BKN014CB RMK WIND 1200FT 29026G36KT
  • 231920Z 27009KT 220V320 9999 VCSH FEW015 SCT025CB 04/M00 Q1020 TEMPO SHRA BKN014CB RMK WIND 1200FT 28017KT

TAF AMD TAF ENBR
Valide du 23 à 21h jusqu'au 24 à 18h UTC


2321/2418 27006KT 9999 FEW020 SCT040
TEMPO 2321/2403 SHRA SCT020CB
BECMG 2323/2402 21015KT
TEMPO 2403/2418 4000 SHRA SCT008 BKN012CB
PROB30
TEMPO 2415/2418 VRB05KT 3000 TSGS
Pas de NOTAMs connus pour ce terrain.
3 SIGMETs publiés pour la FIR Norway (ENOR) :
 
Turbulence forte
ENOS SIGMET A03 VALID 232000/232300 ENMI
ENOR NORWAY FIR SEV TURB FCST WI N5905 E01000 - N5900 E00730 - N6200 E00730 - N6200 E01000 - N5905 E01000 SFC/FL080 STNR WKN=
Turbulence forte
ENBD SIGMET D05 VALID 231900/232300 ENVN
ENOR NORWAY FIR SEV TURB FCST N OF N6500 AND S OF N6800 AND E OF E01200 SFC/FL080 STNR NC=
Turbulence forte
ENBD SIGMET C06 VALID 232000/240000 ENVV
ENOR NORWAY FIR SEV TURB FCST WI N6200 E00530 - N6500 E01200 - N6500 E01430 - N6330 E01230 - N6200 E01000 - N6200 E00530 SFC/FL090 STNR NC=



MET'MAP, la Météo Aéronautique d'un coup d'oeil ! - Copyright ORBIFLY Décembre 2007 - Disclaimer

ORBIFLY MET'MAP TEAM :

Programmation & Développement : Alexandra Zaïnal
Conception & Développement : Baudouin d'Aumeries
Co-Programmation & Développement : Marc-Olivier Méhu
Soutien technique & logistique : Manuel Goepfert

Contact : metmap@orbifly.com




SOURCES & CREDITS :

   NOAA